Bethel, Wisconsin
Current Conditions -  °F | °C
As of 3:54 PM on Monday 22 Dec 2014 (Local Time) from KMFI Reporting Station
Haze Haze  
Wind Chill: 27°   Ceiling: 1800
Heat Index: 35°   Visibility: 5mi
Dew Point: 30°   Wind: 10mph
Humidity: 82%   Direction: 100°E
Pressure: 29.69"   Gusts: NA
Location:  44.5446°N, 90.0354°W
Report Text: KMFI 222154Z AUTO 10009KT 5SM HZ OVC018 02/M01 A2969 RMK AO2 SLP067 T00171011
Loading
Personal Weather Stations






























Interactive Weather Map New forecast layout! Learn more

10-Day Weather Forecast

Advertisements
Track Severe Weather on mobile